sensor_id;sensor_type;location;lat;lon;timestamp;pressure;altitude;pressure_sealevel;temperature;humidity
57801;BME280;43627;42.728;23.256;2023-03-03T00:00:02;95033.06;;;2.89;100.00
57801;BME280;43627;42.728;23.256;2023-03-03T00:02:29;95010.22;;;2.73;100.00
57801;BME280;43627;42.728;23.256;2023-03-03T00:04:56;95031.59;;;2.84;100.00
57801;BME280;43627;42.728;23.256;2023-03-03T00:07:22;95021.94;;;2.86;100.00
57801;BME280;43627;42.728;23.256;2023-03-03T00:09:49;95024.06;;;2.75;100.00
57801;BME280;43627;42.728;23.256;2023-03-03T00:12:30;95024.75;;;2.79;100.00
57801;BME280;43627;42.728;23.256;2023-03-03T00:14:57;95025.81;;;2.85;100.00
57801;BME280;43627;42.728;23.256;2023-03-03T00:17:29;95026.97;;;2.84;100.00
57801;BME280;43627;42.728;23.256;2023-03-03T00:19:58;95009.13;;;2.71;100.00
57801;BME280;43627;42.728;23.256;2023-03-03T00:22:30;95024.75;;;2.79;100.00
57801;BME280;43627;42.728;23.256;2023-03-03T00:25:27;95010.97;;;2.74;100.00
57801;BME280;43627;42.728;23.256;2023-03-03T00:28:00;94989.34;;;2.57;100.00
57801;BME280;43627;42.728;23.256;2023-03-03T00:30:27;94994.59;;;2.65;100.00
57801;BME280;43627;42.728;23.256;2023-03-03T00:32:54;95020.06;;;2.83;100.00
57801;BME280;43627;42.728;23.256;2023-03-03T00:37:58;95004.06;;;2.73;100.00
57801;BME280;43627;42.728;23.256;2023-03-03T00:40:38;94995.19;;;2.76;100.00
57801;BME280;43627;42.728;23.256;2023-03-03T00:45:48;94998.28;;;2.74;100.00
57801;BME280;43627;42.728;23.256;2023-03-03T00:48:26;95003.66;;;2.74;100.00
57801;BME280;43627;42.728;23.256;2023-03-03T00:50:55;95001.75;;;2.75;100.00
57801;BME280;43627;42.728;23.256;2023-03-03T00:53:24;94980.59;;;2.73;100.00
57801;BME280;43627;42.728;23.256;2023-03-03T00:55:52;94992.19;;;2.70;100.00
57801;BME280;43627;42.728;23.256;2023-03-03T00:58:20;94972.59;;;2.70;100.00
57801;BME280;43627;42.728;23.256;2023-03-03T01:00:51;94955.34;;;2.67;100.00
57801;BME280;43627;42.728;23.256;2023-03-03T01:03:20;94949.53;;;2.69;100.00
57801;BME280;43627;42.728;23.256;2023-03-03T01:05:48;94966.94;;;2.84;100.00
57801;BME280;43627;42.728;23.256;2023-03-03T01:08:15;94964.63;;;2.86;100.00
57801;BME280;43627;42.728;23.256;2023-03-03T01:10:45;94949.81;;;2.74;100.00
57801;BME280;43627;42.728;23.256;2023-03-03T01:13:18;94967.97;;;2.70;100.00
57801;BME280;43627;42.728;23.256;2023-03-03T01:15:45;94960.94;;;2.76;100.00
57801;BME280;43627;42.728;23.256;2023-03-03T01:18:12;94953.69;;;2.73;100.00
57801;BME280;43627;42.728;23.256;2023-03-03T01:20:39;94956.66;;;2.79;100.00
57801;BME280;43627;42.728;23.256;2023-03-03T01:23:06;94965.22;;;2.74;100.00
57801;BME280;43627;42.728;23.256;2023-03-03T01:25:33;94951.47;;;2.68;100.00
57801;BME280;43627;42.728;23.256;2023-03-03T01:28:00;94953.34;;;2.71;100.00
57801;BME280;43627;42.728;23.256;2023-03-03T01:30:27;94944.16;;;2.69;100.00
57801;BME280;43627;42.728;23.256;2023-03-03T01:32:54;94950.59;;;2.75;100.00
57801;BME280;43627;42.728;23.256;2023-03-03T01:35:20;94942.88;;;2.77;100.00
57801;BME280;43627;42.728;23.256;2023-03-03T01:37:47;94956.06;;;2.91;100.00
57801;BME280;43627;42.728;23.256;2023-03-03T01:40:22;94950.41;;;2.85;100.00
57801;BME280;43627;42.728;23.256;2023-03-03T01:42:49;94953.78;;;2.90;100.00
57801;BME280;43627;42.728;23.256;2023-03-03T01:45:19;94942.97;;;2.70;100.00
57801;BME280;43627;42.728;23.256;2023-03-03T01:48:11;94955.31;;;2.91;100.00
57801;BME280;43627;42.728;23.256;2023-03-03T01:50:56;94947.41;;;2.80;100.00
57801;BME280;43627;42.728;23.256;2023-03-03T01:53:44;94933.59;;;2.78;100.00
57801;BME280;43627;42.728;23.256;2023-03-03T01:56:11;94930.69;;;2.69;100.00
57801;BME280;43627;42.728;23.256;2023-03-03T01:58:44;94951.16;;;2.86;100.00
57801;BME280;43627;42.728;23.256;2023-03-03T02:01:19;94958.41;;;2.89;100.00
57801;BME280;43627;42.728;23.256;2023-03-03T02:03:47;94958.72;;;2.95;100.00
57801;BME280;43627;42.728;23.256;2023-03-03T02:06:20;94946.25;;;2.81;100.00
57801;BME280;43627;42.728;23.256;2023-03-03T02:11:18;94954.44;;;2.74;100.00
57801;BME280;43627;42.728;23.256;2023-03-03T02:13:46;94933.38;;;2.69;100.00
57801;BME280;43627;42.728;23.256;2023-03-03T02:16:13;94943.88;;;2.83;100.00
57801;BME280;43627;42.728;23.256;2023-03-03T02:18:40;94941.28;;;2.79;100.00
57801;BME280;43627;42.728;23.256;2023-03-03T02:21:15;94952.03;;;2.79;100.00
57801;BME280;43627;42.728;23.256;2023-03-03T02:26:55;94928.53;;;2.60;100.00
57801;BME280;43627;42.728;23.256;2023-03-03T02:29:22;94948.81;;;2.65;100.00
57801;BME280;43627;42.728;23.256;2023-03-03T02:31:48;94944.25;;;2.62;100.00
57801;BME280;43627;42.728;23.256;2023-03-03T02:34:16;94938.59;;;2.56;100.00
57801;BME280;43627;42.728;23.256;2023-03-03T02:36:43;94906.53;;;2.42;100.00
57801;BME280;43627;42.728;23.256;2023-03-03T02:39:24;94948.03;;;2.68;100.00
57801;BME280;43627;42.728;23.256;2023-03-03T02:42:13;94944.63;;;2.64;100.00
57801;BME280;43627;42.728;23.256;2023-03-03T02:44:41;94937.66;;;2.66;100.00
57801;BME280;43627;42.728;23.256;2023-03-03T02:47:08;94925.16;;;2.56;100.00
57801;BME280;43627;42.728;23.256;2023-03-03T02:49:35;94946.84;;;2.69;100.00
57801;BME280;43627;42.728;23.256;2023-03-03T02:52:05;94942.22;;;2.69;100.00
57801;BME280;43627;42.728;23.256;2023-03-03T02:54:32;94942.22;;;2.69;100.00
57801;BME280;43627;42.728;23.256;2023-03-03T02:56:59;94935.25;;;2.72;100.00
57801;BME280;43627;42.728;23.256;2023-03-03T02:59:26;94929.84;;;2.72;100.00
57801;BME280;43627;42.728;23.256;2023-03-03T03:01:54;94939.81;;;2.75;100.00
57801;BME280;43627;42.728;23.256;2023-03-03T03:04:22;94930.28;;;2.70;100.00
57801;BME280;43627;42.728;23.256;2023-03-03T03:06:50;94931.25;;;2.80;100.00
57801;BME280;43627;42.728;23.256;2023-03-03T03:09:18;94932.03;;;2.80;100.00
57801;BME280;43627;42.728;23.256;2023-03-03T03:11:45;94935.06;;;2.82;100.00
57801;BME280;43627;42.728;23.256;2023-03-03T03:14:13;94933.53;;;2.81;100.00
57801;BME280;43627;42.728;23.256;2023-03-03T03:16:40;94925.31;;;2.69;100.00
57801;BME280;43627;42.728;23.256;2023-03-03T03:19:07;94923.59;;;2.78;100.00
57801;BME280;43627;42.728;23.256;2023-03-03T03:21:34;94936.22;;;2.81;100.00
57801;BME280;43627;42.728;23.256;2023-03-03T03:24:00;94924.47;;;2.72;100.00
57801;BME280;43627;42.728;23.256;2023-03-03T03:26:27;94928.22;;;2.78;100.00
57801;BME280;43627;42.728;23.256;2023-03-03T03:28:54;94910.88;;;2.59;100.00
57801;BME280;43627;42.728;23.256;2023-03-03T03:31:21;94927.47;;;2.77;100.00
57801;BME280;43627;42.728;23.256;2023-03-03T03:33:48;94921.59;;;2.82;100.00
57801;BME280;43627;42.728;23.256;2023-03-03T03:36:15;94920.06;;;2.81;100.00
57801;BME280;43627;42.728;23.256;2023-03-03T03:38:42;94921.31;;;2.77;100.00
57801;BME280;43627;42.728;23.256;2023-03-03T03:41:10;94922.13;;;2.74;100.00
57801;BME280;43627;42.728;23.256;2023-03-03T03:43:37;94915.09;;;2.80;100.00
57801;BME280;43627;42.728;23.256;2023-03-03T03:46:04;94920.19;;;2.74;100.00
57801;BME280;43627;42.728;23.256;2023-03-03T03:48:30;94917.91;;;2.73;100.00
57801;BME280;43627;42.728;23.256;2023-03-03T03:50:57;94921.09;;;2.68;100.00
57801;BME280;43627;42.728;23.256;2023-03-03T03:53:24;94892.31;;;2.41;100.00
57801;BME280;43627;42.728;23.256;2023-03-03T03:55:51;94906.25;;;2.60;100.00
57801;BME280;43627;42.728;23.256;2023-03-03T03:58:18;94901.09;;;2.45;100.00
57801;BME280;43627;42.728;23.256;2023-03-03T04:00:45;94909.34;;;2.58;100.00
57801;BME280;43627;42.728;23.256;2023-03-03T04:03:12;94890.06;;;2.40;100.00
57801;BME280;43627;42.728;23.256;2023-03-03T04:05:42;94896.41;;;2.49;100.00
57801;BME280;43627;42.728;23.256;2023-03-03T04:08:09;94909.81;;;2.53;100.00
57801;BME280;43627;42.728;23.256;2023-03-03T04:10:36;94909.00;;;2.56;100.00
57801;BME280;43627;42.728;23.256;2023-03-03T04:13:03;94903.63;;;2.56;100.00
57801;BME280;43627;42.728;23.256;2023-03-03T04:15:30;94900.13;;;2.55;100.00
57801;BME280;43627;42.728;23.256;2023-03-03T04:17:56;94894.81;;;2.52;100.00
57801;BME280;43627;42.728;23.256;2023-03-03T04:20:23;94902.56;;;2.50;100.00
57801;BME280;43627;42.728;23.256;2023-03-03T04:22:49;94907.22;;;2.46;100.00
57801;BME280;43627;42.728;23.256;2023-03-03T04:25:17;94901.81;;;2.49;100.00
57801;BME280;43627;42.728;23.256;2023-03-03T04:27:44;94903.25;;;2.54;100.00
57801;BME280;43627;42.728;23.256;2023-03-03T04:30:12;94882.25;;;2.45;100.00
57801;BME280;43627;42.728;23.256;2023-03-03T04:32:39;94906.94;;;2.64;100.00
57801;BME280;43627;42.728;23.256;2023-03-03T04:35:07;94880.53;;;2.55;100.00
57801;BME280;43627;42.728;23.256;2023-03-03T04:37:35;94888.84;;;2.64;100.00
57801;BME280;43627;42.728;23.256;2023-03-03T04:40:06;94887.66;;;2.65;100.00
57801;BME280;43627;42.728;23.256;2023-03-03T04:42:34;94891.53;;;2.64;100.00
57801;BME280;43627;42.728;23.256;2023-03-03T04:45:00;94893.88;;;2.62;100.00
57801;BME280;43627;42.728;23.256;2023-03-03T04:47:27;94876.47;;;2.47;100.00
57801;BME280;43627;42.728;23.256;2023-03-03T04:49:54;94897.28;;;2.66;100.00
57801;BME280;43627;42.728;23.256;2023-03-03T04:52:20;94900.66;;;2.70;100.00
57801;BME280;43627;42.728;23.256;2023-03-03T04:54:47;94863.63;;;2.54;100.00
57801;BME280;43627;42.728;23.256;2023-03-03T04:57:14;94894.44;;;2.73;100.00
57801;BME280;43627;42.728;23.256;2023-03-03T04:59:40;94910.78;;;2.86;100.00
57801;BME280;43627;42.728;23.256;2023-03-03T05:02:07;94898.53;;;2.81;100.00
57801;BME280;43627;42.728;23.256;2023-03-03T05:04:34;94908.88;;;2.83;100.00
57801;BME280;43627;42.728;23.256;2023-03-03T05:07:01;94912.06;;;2.78;100.00
57801;BME280;43627;42.728;23.256;2023-03-03T05:09:27;94888.28;;;2.53;100.00
57801;BME280;43627;42.728;23.256;2023-03-03T05:11:54;94874.34;;;2.58;100.00
57801;BME280;43627;42.728;23.256;2023-03-03T05:14:21;94912.84;;;2.78;100.00
57801;BME280;43627;42.728;23.256;2023-03-03T05:16:48;94908.31;;;2.72;100.00
57801;BME280;43627;42.728;23.256;2023-03-03T05:19:14;94890.91;;;2.56;100.00
57801;BME280;43627;42.728;23.256;2023-03-03T05:21:41;94899.38;;;2.55;100.00
57801;BME280;43627;42.728;23.256;2023-03-03T05:24:09;94914.53;;;2.69;100.00
57801;BME280;43627;42.728;23.256;2023-03-03T05:26:36;94924.25;;;2.63;100.00
57801;BME280;43627;42.728;23.256;2023-03-03T05:29:03;94902.78;;;2.59;100.00
57801;BME280;43627;42.728;23.256;2023-03-03T05:31:30;94916.06;;;2.70;100.00
57801;BME280;43627;42.728;23.256;2023-03-03T05:33:56;94916.75;;;2.74;100.00
57801;BME280;43627;42.728;23.256;2023-03-03T05:36:23;94906.81;;;2.71;100.00
57801;BME280;43627;42.728;23.256;2023-03-03T05:38:50;94927.25;;;2.68;100.00
57801;BME280;43627;42.728;23.256;2023-03-03T05:41:17;94924.56;;;2.68;100.00
57801;BME280;43627;42.728;23.256;2023-03-03T05:43:44;94900.31;;;2.45;100.00
57801;BME280;43627;42.728;23.256;2023-03-03T05:46:10;94916.06;;;2.46;100.00
57801;BME280;43627;42.728;23.256;2023-03-03T05:48:37;94926.66;;;2.57;100.00
57801;BME280;43627;42.728;23.256;2023-03-03T05:51:04;94928.13;;;2.62;100.00
57801;BME280;43627;42.728;23.256;2023-03-03T05:53:31;94897.94;;;2.50;100.00
57801;BME280;43627;42.728;23.256;2023-03-03T05:55:58;94907.13;;;2.53;100.00
57801;BME280;43627;42.728;23.256;2023-03-03T05:58:24;94929.44;;;2.73;100.00
57801;BME280;43627;42.728;23.256;2023-03-03T06:00:51;94910.88;;;2.59;100.00
57801;BME280;43627;42.728;23.256;2023-03-03T06:03:18;94918.56;;;2.80;100.00
57801;BME280;43627;42.728;23.256;2023-03-03T06:05:45;94916.28;;;2.79;100.00
57801;BME280;43627;42.728;23.256;2023-03-03T06:08:11;94915.72;;;2.68;100.00
57801;BME280;43627;42.728;23.256;2023-03-03T06:10:38;94927.41;;;2.81;100.00
57801;BME280;43627;42.728;23.256;2023-03-03T06:13:05;94933.41;;;2.89;100.00
57801;BME280;43627;42.728;23.256;2023-03-03T06:15:31;94919.28;;;2.84;100.00
57801;BME280;43627;42.728;23.256;2023-03-03T06:17:58;94938.47;;;2.86;100.00
57801;BME280;43627;42.728;23.256;2023-03-03T06:20:25;94924.91;;;2.70;100.00
57801;BME280;43627;42.728;23.256;2023-03-03T06:22:52;94932.72;;;2.84;100.00
57801;BME280;43627;42.728;23.256;2023-03-03T06:25:18;94937.81;;;2.79;100.00
57801;BME280;43627;42.728;23.256;2023-03-03T06:27:45;94906.72;;;2.74;100.00
57801;BME280;43627;42.728;23.256;2023-03-03T06:30:12;94944.34;;;3.01;100.00
57801;BME280;43627;42.728;23.256;2023-03-03T06:32:39;94942.88;;;2.97;100.00
57801;BME280;43627;42.728;23.256;2023-03-03T06:35:07;94908.50;;;2.84;100.00
57801;BME280;43627;42.728;23.256;2023-03-03T06:37:34;94938.91;;;3.05;100.00
57801;BME280;43627;42.728;23.256;2023-03-03T06:40:01;94949.66;;;3.05;100.00
57801;BME280;43627;42.728;23.256;2023-03-03T06:42:28;94909.72;;;2.80;100.00
57801;BME280;43627;42.728;23.256;2023-03-03T06:44:54;94949.19;;;3.10;100.00
57801;BME280;43627;42.728;23.256;2023-03-03T06:47:21;94926.03;;;2.93;100.00
57801;BME280;43627;42.728;23.256;2023-03-03T06:49:48;94941.38;;;2.96;100.00
57801;BME280;43627;42.728;23.256;2023-03-03T06:52:23;94923.88;;;2.84;100.00
57801;BME280;43627;42.728;23.256;2023-03-03T06:54:58;94930.66;;;2.92;100.00
57801;BME280;43627;42.728;23.256;2023-03-03T06:57:31;94951.75;;;3.17;100.00
57801;BME280;43627;42.728;23.256;2023-03-03T07:00:30;94947.00;;;3.25;100.00
57801;BME280;43627;42.728;23.256;2023-03-03T07:02:59;94940.44;;;3.26;100.00
57801;BME280;43627;42.728;23.256;2023-03-03T07:05:28;94941.72;;;3.18;100.00
57801;BME280;43627;42.728;23.256;2023-03-03T07:07:55;94953.25;;;3.38;100.00
57801;BME280;43627;42.728;23.256;2023-03-03T07:10:27;94947.53;;;3.36;100.00
57801;BME280;43627;42.728;23.256;2023-03-03T07:13:14;94949.53;;;3.52;100.00
57801;BME280;43627;42.728;23.256;2023-03-03T07:15:41;94926.13;;;3.29;100.00
57801;BME280;43627;42.728;23.256;2023-03-03T07:20:47;94943.97;;;3.59;100.00
57801;BME280;43627;42.728;23.256;2023-03-03T07:23:25;94953.13;;;3.65;100.00
57801;BME280;43627;42.728;23.256;2023-03-03T07:25:53;94948.16;;;3.63;100.00
57801;BME280;43627;42.728;23.256;2023-03-03T07:28:26;94949.25;;;3.66;100.00
57801;BME280;43627;42.728;23.256;2023-03-03T07:30:54;94955.09;;;3.81;100.00
57801;BME280;43627;42.728;23.256;2023-03-03T07:33:34;94951.38;;;3.75;100.00
57801;BME280;43627;42.728;23.256;2023-03-03T07:36:17;94938.97;;;3.61;100.00
57801;BME280;43627;42.728;23.256;2023-03-03T07:38:53;94944.50;;;3.54;100.00
57801;BME280;43627;42.728;23.256;2023-03-03T07:41:20;94948.06;;;3.67;100.00
57801;BME280;43627;42.728;23.256;2023-03-03T07:43:51;94927.59;;;3.69;100.00
57801;BME280;43627;42.728;23.256;2023-03-03T07:49:19;94945.41;;;3.83;100.00
57801;BME280;43627;42.728;23.256;2023-03-03T07:51:47;94924.28;;;3.62;100.00
57801;BME280;43627;42.728;23.256;2023-03-03T07:54:39;94892.94;;;3.52;100.00
57801;BME280;43627;42.728;23.256;2023-03-03T07:59:45;94948.59;;;3.78;100.00
57801;BME280;43627;42.728;23.256;2023-03-03T08:04:55;94938.31;;;3.73;100.00
57801;BME280;43627;42.728;23.256;2023-03-03T08:07:22;94914.88;;;3.70;100.00
57801;BME280;43627;42.728;23.256;2023-03-03T08:09:59;94931.97;;;3.99;100.00
57801;BME280;43627;42.728;23.256;2023-03-03T08:12:32;94939.34;;;3.95;100.00
57801;BME280;43627;42.728;23.256;2023-03-03T08:15:24;94936.66;;;3.95;100.00
57801;BME280;43627;42.728;23.256;2023-03-03T08:17:52;94937.53;;;4.09;100.00
57801;BME280;43627;42.728;23.256;2023-03-03T08:20:45;94945.63;;;4.25;100.00
57801;BME280;43627;42.728;23.256;2023-03-03T08:23:18;94908.44;;;4.16;100.00
57801;BME280;43627;42.728;23.256;2023-03-03T08:25:46;94924.03;;;4.41;100.00
57801;BME280;43627;42.728;23.256;2023-03-03T08:28:13;94917.38;;;4.29;100.00
57801;BME280;43627;42.728;23.256;2023-03-03T08:30:42;94917.88;;;4.24;100.00
57801;BME280;43627;42.728;23.256;2023-03-03T08:33:10;94911.06;;;4.36;100.00
57801;BME280;43627;42.728;23.256;2023-03-03T08:35:36;94929.72;;;4.47;100.00
57801;BME280;43627;42.728;23.256;2023-03-03T08:38:03;94936.03;;;4.56;100.00
57801;BME280;43627;42.728;23.256;2023-03-03T08:40:31;94926.25;;;4.46;100.00
57801;BME280;43627;42.728;23.256;2023-03-03T08:42:58;94924.22;;;4.34;100.00
57801;BME280;43627;42.728;23.256;2023-03-03T08:45:25;94920.16;;;4.26;100.00
57801;BME280;43627;42.728;23.256;2023-03-03T08:47:53;94930.47;;;4.31;100.00
57801;BME280;43627;42.728;23.256;2023-03-03T08:50:19;94933.75;;;4.22;100.00
57801;BME280;43627;42.728;23.256;2023-03-03T08:52:46;94917.81;;;4.12;100.00
57801;BME280;43627;42.728;23.256;2023-03-03T08:55:13;94920.84;;;4.14;100.00
57801;BME280;43627;42.728;23.256;2023-03-03T08:57:40;94896.47;;;4.17;100.00
57801;BME280;43627;42.728;23.256;2023-03-03T09:00:09;94927.75;;;4.47;100.00
57801;BME280;43627;42.728;23.256;2023-03-03T09:02:36;94916.09;;;4.34;100.00
57801;BME280;43627;42.728;23.256;2023-03-03T09:05:04;94911.91;;;4.33;100.00
57801;BME280;43627;42.728;23.256;2023-03-03T09:07:31;94929.34;;;4.45;100.00
57801;BME280;43627;42.728;23.256;2023-03-03T09:09:58;94905.41;;;4.47;100.00
57801;BME280;43627;42.728;23.256;2023-03-03T09:12:35;94926.38;;;4.72;100.00
57801;BME280;43627;42.728;23.256;2023-03-03T09:15:13;94907.03;;;4.73;100.00
57801;BME280;43627;42.728;23.256;2023-03-03T09:17:40;94924.84;;;4.87;100.00
57801;BME280;43627;42.728;23.256;2023-03-03T09:25:46;94910.00;;;4.63;100.00
57801;BME280;43627;42.728;23.256;2023-03-03T09:28:28;94925.50;;;4.91;100.00
57801;BME280;43627;42.728;23.256;2023-03-03T09:30:58;94925.28;;;4.85;100.00
57801;BME280;43627;42.728;23.256;2023-03-03T09:33:31;94909.09;;;4.69;100.00
57801;BME280;43627;42.728;23.256;2023-03-03T09:36:27;94925.50;;;4.91;100.00
57801;BME280;43627;42.728;23.256;2023-03-03T09:38:56;94922.94;;;5.00;100.00
57801;BME280;43627;42.728;23.256;2023-03-03T09:41:45;94935.38;;;5.27;100.00
57801;BME280;43627;42.728;23.256;2023-03-03T09:55:47;94928.34;;;5.29;100.00
57801;BME280;43627;42.728;23.256;2023-03-03T09:58:39;94895.88;;;5.16;100.00
57801;BME280;43627;42.728;23.256;2023-03-03T10:04:36;94930.41;;;5.80;100.00
57801;BME280;43627;42.728;23.256;2023-03-03T10:07:18;94915.16;;;5.86;100.00
57801;BME280;43627;42.728;23.256;2023-03-03T10:10:30;94922.44;;;6.14;100.00
57801;BME280;43627;42.728;23.256;2023-03-03T10:18:38;94927.50;;;6.50;100.00
57801;BME280;43627;42.728;23.256;2023-03-03T10:32:51;94906.19;;;6.27;100.00
57801;BME280;43627;42.728;23.256;2023-03-03T10:35:29;94916.13;;;6.43;100.00
57801;BME280;43627;42.728;23.256;2023-03-03T10:44:22;94903.56;;;6.49;100.00
57801;BME280;43627;42.728;23.256;2023-03-03T10:52:31;94902.41;;;6.24;100.00
57801;BME280;43627;42.728;23.256;2023-03-03T10:55:20;94906.84;;;6.31;100.00
57801;BME280;43627;42.728;23.256;2023-03-03T11:17:38;94864.09;;;6.00;100.00
57801;BME280;43627;42.728;23.256;2023-03-03T11:20:22;94888.84;;;6.24;100.00
57801;BME280;43627;42.728;23.256;2023-03-03T11:25:49;94874.53;;;6.49;100.00
57801;BME280;43627;42.728;23.256;2023-03-03T11:31:22;94858.91;;;6.53;100.00
57801;BME280;43627;42.728;23.256;2023-03-03T11:36:27;94871.94;;;6.46;100.00
57801;BME280;43627;42.728;23.256;2023-03-03T11:39:06;94871.59;;;6.56;100.00
57801;BME280;43627;42.728;23.256;2023-03-03T11:41:44;94876.34;;;6.52;100.00
57801;BME280;43627;42.728;23.256;2023-03-03T11:44:20;94865.16;;;6.63;100.00
57801;BME280;43627;42.728;23.256;2023-03-03T11:46:53;94862.69;;;6.56;100.00
57801;BME280;43627;42.728;23.256;2023-03-03T11:49:34;94860.25;;;6.71;100.00
57801;BME280;43627;42.728;23.256;2023-03-03T11:52:20;94859.63;;;6.67;100.00
57801;BME280;43627;42.728;23.256;2023-03-03T11:54:53;94848.59;;;6.61;100.00
57801;BME280;43627;42.728;23.256;2023-03-03T11:57:31;94841.81;;;6.44;100.00
57801;BME280;43627;42.728;23.256;2023-03-03T12:05:07;94841.34;;;6.58;100.00
57801;BME280;43627;42.728;23.256;2023-03-03T12:08:02;94856.00;;;6.48;100.00
57801;BME280;43627;42.728;23.256;2023-03-03T12:19:15;94861.81;;;5.99;100.00
57801;BME280;43627;42.728;23.256;2023-03-03T12:27:38;94856.06;;;5.71;100.00
57801;BME280;43627;42.728;23.256;2023-03-03T12:33:10;94855.75;;;5.69;100.00
57801;BME280;43627;42.728;23.256;2023-03-03T12:35:43;94851.63;;;5.65;100.00
57801;BME280;43627;42.728;23.256;2023-03-03T12:41:16;94845.22;;;5.46;100.00
57801;BME280;43627;42.728;23.256;2023-03-03T12:44:01;94864.81;;;5.63;100.00
57801;BME280;43627;42.728;23.256;2023-03-03T12:49:06;94854.72;;;5.38;100.00
57801;BME280;43627;42.728;23.256;2023-03-03T12:52:08;94845.16;;;5.21;100.00
57801;BME280;43627;42.728;23.256;2023-03-03T12:55:10;94860.38;;;5.43;100.00
57801;BME280;43627;42.728;23.256;2023-03-03T12:58:00;94844.00;;;5.22;100.00
57801;BME280;43627;42.728;23.256;2023-03-03T13:00:45;94846.41;;;5.32;100.00
57801;BME280;43627;42.728;23.256;2023-03-03T13:03:39;94808.13;;;4.92;100.00
57801;BME280;43627;42.728;23.256;2023-03-03T13:06:42;94856.84;;;5.18;100.00
57801;BME280;43627;42.728;23.256;2023-03-03T13:09:37;94846.28;;;5.36;100.00
57801;BME280;43627;42.728;23.256;2023-03-03T13:12:29;94812.50;;;5.02;100.00
57801;BME280;43627;42.728;23.256;2023-03-03T13:15:34;94760.59;;;4.95;100.00
57801;BME280;43627;42.728;23.256;2023-03-03T13:26:10;94839.63;;;5.91;100.00
57801;BME280;43627;42.728;23.256;2023-03-03T13:28:54;94841.78;;;6.09;100.00
57801;BME280;43627;42.728;23.256;2023-03-03T13:31:30;94795.34;;;5.72;100.00
57801;BME280;43627;42.728;23.256;2023-03-03T13:33:59;94791.03;;;6.00;100.00
57801;BME280;43627;42.728;23.256;2023-03-03T13:36:50;94823.88;;;6.24;100.00
57801;BME280;43627;42.728;23.256;2023-03-03T13:39:26;94845.31;;;6.32;100.00
57801;BME280;43627;42.728;23.256;2023-03-03T13:42:05;94836.47;;;6.18;100.00
57801;BME280;43627;42.728;23.256;2023-03-03T13:44:41;94832.09;;;6.34;100.00
57801;BME280;43627;42.728;23.256;2023-03-03T13:47:26;94814.47;;;6.29;100.00
57801;BME280;43627;42.728;23.256;2023-03-03T13:50:02;94785.34;;;6.20;100.00
57801;BME280;43627;42.728;23.256;2023-03-03T13:55:34;94809.22;;;6.35;100.00
57801;BME280;43627;42.728;23.256;2023-03-03T14:00:57;94829.28;;;6.24;100.00
57801;BME280;43627;42.728;23.256;2023-03-03T14:06:31;94818.19;;;6.10;100.00
57801;BME280;43627;42.728;23.256;2023-03-03T14:14:29;94847.19;;;5.96;100.00
57801;BME280;43627;42.728;23.256;2023-03-03T14:17:08;94803.47;;;5.72;100.00
57801;BME280;43627;42.728;23.256;2023-03-03T14:22:44;94798.59;;;5.67;100.00
57801;BME280;43627;42.728;23.256;2023-03-03T14:25:13;94782.72;;;5.69;100.00
57801;BME280;43627;42.728;23.256;2023-03-03T14:30:36;94829.84;;;5.68;100.00
57801;BME280;43627;42.728;23.256;2023-03-03T14:38:21;94821.09;;;5.90;100.00
57801;BME280;43627;42.728;23.256;2023-03-03T14:40:49;94814.59;;;5.74;100.00
57801;BME280;43627;42.728;23.256;2023-03-03T14:43:39;94812.66;;;5.75;100.00
57801;BME280;43627;42.728;23.256;2023-03-03T14:48:54;94822.97;;;5.93;100.00
57801;BME280;43627;42.728;23.256;2023-03-03T14:51:24;94792.34;;;5.70;100.00
57801;BME280;43627;42.728;23.256;2023-03-03T14:53:52;94820.78;;;5.75;100.00
57801;BME280;43627;42.728;23.256;2023-03-03T14:56:36;94799.03;;;5.79;100.00
57801;BME280;43627;42.728;23.256;2023-03-03T15:01:37;94821.75;;;5.81;100.00
57801;BME280;43627;42.728;23.256;2023-03-03T15:06:47;94820.78;;;5.75;100.00
57801;BME280;43627;42.728;23.256;2023-03-03T15:09:47;94822.94;;;5.80;100.00
57801;BME280;43627;42.728;23.256;2023-03-03T15:12:25;94814.50;;;5.65;100.00
57801;BME280;43627;42.728;23.256;2023-03-03T15:17:55;94811.38;;;5.54;100.00
57801;BME280;43627;42.728;23.256;2023-03-03T15:29:01;94805.41;;;5.34;100.00
57801;BME280;43627;42.728;23.256;2023-03-03T15:31:45;94811.03;;;5.27;100.00
57801;BME280;43627;42.728;23.256;2023-03-03T15:37:44;94810.25;;;5.26;100.00
57801;BME280;43627;42.728;23.256;2023-03-03T15:40:28;94812.09;;;5.29;100.00
57801;BME280;43627;42.728;23.256;2023-03-03T15:43:23;94818.81;;;5.25;100.00
57801;BME280;43627;42.728;23.256;2023-03-03T15:49:11;94800.75;;;5.22;100.00
57801;BME280;43627;42.728;23.256;2023-03-03T15:51:45;94812.22;;;5.26;100.00
57801;BME280;43627;42.728;23.256;2023-03-03T15:57:39;94822.59;;;5.40;100.00
57801;BME280;43627;42.728;23.256;2023-03-03T16:03:00;94813.41;;;5.25;100.00
57801;BME280;43627;42.728;23.256;2023-03-03T16:05:43;94824.22;;;5.37;100.00
57801;BME280;43627;42.728;23.256;2023-03-03T16:08:29;94838.72;;;5.56;100.00
57801;BME280;43627;42.728;23.256;2023-03-03T16:11:14;94833.88;;;6.02;100.00
57801;BME280;43627;42.728;23.256;2023-03-03T16:19:25;94839.72;;;6.00;100.00
57801;BME280;43627;42.728;23.256;2023-03-03T16:39:10;94858.56;;;6.04;100.00
57801;BME280;43627;42.728;23.256;2023-03-03T16:44:33;94824.25;;;5.63;100.00
57801;BME280;43627;42.728;23.256;2023-03-03T16:49:58;94870.47;;;5.94;100.00
57801;BME280;43627;42.728;23.256;2023-03-03T16:52:35;94865.38;;;5.83;100.00
57801;BME280;43627;42.728;23.256;2023-03-03T16:55:13;94887.66;;;5.87;100.00
57801;BME280;43627;42.728;23.256;2023-03-03T17:03:22;94867.03;;;5.39;100.00